sensor_id;sensor_type;location;lat;lon;timestamp;temperature;humidity
12911;DHT22;6523;49.758;6.120;2023-02-27T00:01:06;-2.10;89.80
12911;DHT22;6523;49.758;6.120;2023-02-27T00:03:32;-2.30;91.40
12911;DHT22;6523;49.758;6.120;2023-02-27T00:05:58;-2.40;94.40
12911;DHT22;6523;49.758;6.120;2023-02-27T00:08:23;-2.20;94.70
12911;DHT22;6523;49.758;6.120;2023-02-27T00:10:49;-2.10;93.80
12911;DHT22;6523;49.758;6.120;2023-02-27T00:13:15;-2.20;94.30
12911;DHT22;6523;49.758;6.120;2023-02-27T00:15:40;-2.30;94.20
12911;DHT22;6523;49.758;6.120;2023-02-27T00:18:06;-2.30;94.00
12911;DHT22;6523;49.758;6.120;2023-02-27T00:20:32;-2.00;93.20
12911;DHT22;6523;49.758;6.120;2023-02-27T00:23:06;-2.00;92.40
12911;DHT22;6523;49.758;6.120;2023-02-27T00:25:33;-2.10;92.20
12911;DHT22;6523;49.758;6.120;2023-02-27T00:27:59;-2.30;93.50
12911;DHT22;6523;49.758;6.120;2023-02-27T00:30:25;-2.40;96.00
12911;DHT22;6523;49.758;6.120;2023-02-27T00:32:51;-2.60;96.80
12911;DHT22;6523;49.758;6.120;2023-02-27T00:35:17;-2.60;99.20
12911;DHT22;6523;49.758;6.120;2023-02-27T00:37:43;-2.50;98.80
12911;DHT22;6523;49.758;6.120;2023-02-27T00:40:09;-2.50;97.80
12911;DHT22;6523;49.758;6.120;2023-02-27T00:42:35;-2.70;99.10
12911;DHT22;6523;49.758;6.120;2023-02-27T00:45:02;-2.50;99.90
12911;DHT22;6523;49.758;6.120;2023-02-27T00:47:27;-2.40;98.80
12911;DHT22;6523;49.758;6.120;2023-02-27T00:49:53;-2.50;99.50
12911;DHT22;6523;49.758;6.120;2023-02-27T00:52:18;-2.70;99.90
12911;DHT22;6523;49.758;6.120;2023-02-27T00:54:44;-2.60;99.90
12911;DHT22;6523;49.758;6.120;2023-02-27T00:57:09;-2.60;99.90
12911;DHT22;6523;49.758;6.120;2023-02-27T00:59:35;-2.50;99.90
12911;DHT22;6523;49.758;6.120;2023-02-27T01:02:01;-2.50;99.90
12911;DHT22;6523;49.758;6.120;2023-02-27T01:04:26;-2.60;99.90
12911;DHT22;6523;49.758;6.120;2023-02-27T01:06:52;-2.60;99.90
12911;DHT22;6523;49.758;6.120;2023-02-27T01:09:17;-2.60;99.90
12911;DHT22;6523;49.758;6.120;2023-02-27T01:11:43;-2.60;99.90
12911;DHT22;6523;49.758;6.120;2023-02-27T01:14:09;-2.60;99.90
12911;DHT22;6523;49.758;6.120;2023-02-27T01:16:35;-2.60;99.90
12911;DHT22;6523;49.758;6.120;2023-02-27T01:19:01;-2.60;99.90
12911;DHT22;6523;49.758;6.120;2023-02-27T01:21:26;-2.50;99.90
12911;DHT22;6523;49.758;6.120;2023-02-27T01:23:52;-2.50;99.90
12911;DHT22;6523;49.758;6.120;2023-02-27T01:26:17;-2.60;99.90
12911;DHT22;6523;49.758;6.120;2023-02-27T01:28:43;-2.60;99.90
12911;DHT22;6523;49.758;6.120;2023-02-27T01:31:08;-2.70;99.90
12911;DHT22;6523;49.758;6.120;2023-02-27T01:33:34;-2.80;99.90
12911;DHT22;6523;49.758;6.120;2023-02-27T01:36:00;-2.90;99.90
12911;DHT22;6523;49.758;6.120;2023-02-27T01:38:25;-2.70;99.90
12911;DHT22;6523;49.758;6.120;2023-02-27T01:40:51;-2.70;99.90
12911;DHT22;6523;49.758;6.120;2023-02-27T01:43:19;-2.60;99.90
12911;DHT22;6523;49.758;6.120;2023-02-27T01:45:46;-2.70;99.90
12911;DHT22;6523;49.758;6.120;2023-02-27T01:50:47;-2.70;99.90
12911;DHT22;6523;49.758;6.120;2023-02-27T01:53:15;-2.80;99.90
12911;DHT22;6523;49.758;6.120;2023-02-27T01:55:42;-2.80;99.90
12911;DHT22;6523;49.758;6.120;2023-02-27T01:58:10;-2.80;99.90
12911;DHT22;6523;49.758;6.120;2023-02-27T02:00:37;-2.90;99.90
12911;DHT22;6523;49.758;6.120;2023-02-27T02:03:16;-3.00;99.90
12911;DHT22;6523;49.758;6.120;2023-02-27T02:05:44;-2.80;99.90
12911;DHT22;6523;49.758;6.120;2023-02-27T02:08:10;-2.80;99.90
12911;DHT22;6523;49.758;6.120;2023-02-27T02:10:39;-2.80;99.90
12911;DHT22;6523;49.758;6.120;2023-02-27T02:13:06;-3.00;99.90
12911;DHT22;6523;49.758;6.120;2023-02-27T02:15:36;-2.70;99.90
12911;DHT22;6523;49.758;6.120;2023-02-27T02:18:41;-2.60;99.90
12911;DHT22;6523;49.758;6.120;2023-02-27T02:24:13;-2.40;99.90
12911;DHT22;6523;49.758;6.120;2023-02-27T02:26:50;-2.60;99.90
12911;DHT22;6523;49.758;6.120;2023-02-27T02:40:22;-2.60;99.90
12911;DHT22;6523;49.758;6.120;2023-02-27T02:49:34;-2.90;99.90
12911;DHT22;6523;49.758;6.120;2023-02-27T02:57:56;-2.90;99.90
12911;DHT22;6523;49.758;6.120;2023-02-27T03:00:23;-3.00;99.90
12911;DHT22;6523;49.758;6.120;2023-02-27T03:02:57;-2.80;99.90
12911;DHT22;6523;49.758;6.120;2023-02-27T03:05:37;-2.70;99.90
12911;DHT22;6523;49.758;6.120;2023-02-27T03:08:07;-2.80;99.90
12911;DHT22;6523;49.758;6.120;2023-02-27T03:10:42;-3.00;99.90
12911;DHT22;6523;49.758;6.120;2023-02-27T03:18:42;-2.90;99.90
12911;DHT22;6523;49.758;6.120;2023-02-27T03:21:17;-2.70;99.90
12911;DHT22;6523;49.758;6.120;2023-02-27T03:23:47;-2.70;99.90
12911;DHT22;6523;49.758;6.120;2023-02-27T03:26:17;-2.80;99.90
12911;DHT22;6523;49.758;6.120;2023-02-27T03:28:54;-2.90;99.90
12911;DHT22;6523;49.758;6.120;2023-02-27T03:31:30;-2.90;99.90
12911;DHT22;6523;49.758;6.120;2023-02-27T03:36:53;-2.90;99.90
12911;DHT22;6523;49.758;6.120;2023-02-27T03:42:09;-2.90;99.90
12911;DHT22;6523;49.758;6.120;2023-02-27T03:45:06;-2.70;99.90
12911;DHT22;6523;49.758;6.120;2023-02-27T03:47:33;-2.70;99.90
12911;DHT22;6523;49.758;6.120;2023-02-27T03:49:59;-2.90;99.90
12911;DHT22;6523;49.758;6.120;2023-02-27T03:52:26;-3.00;99.90
12911;DHT22;6523;49.758;6.120;2023-02-27T03:54:56;-3.10;99.90
12911;DHT22;6523;49.758;6.120;2023-02-27T03:57:24;-3.00;99.90
12911;DHT22;6523;49.758;6.120;2023-02-27T03:59:50;-3.20;99.90
12911;DHT22;6523;49.758;6.120;2023-02-27T04:02:16;-3.30;99.90
12911;DHT22;6523;49.758;6.120;2023-02-27T04:04:41;-3.10;99.90
12911;DHT22;6523;49.758;6.120;2023-02-27T04:10:20;-3.10;99.90
12911;DHT22;6523;49.758;6.120;2023-02-27T04:13:10;-3.10;99.90
12911;DHT22;6523;49.758;6.120;2023-02-27T04:16:05;-3.20;99.90
12911;DHT22;6523;49.758;6.120;2023-02-27T04:26:40;-3.30;99.90
12911;DHT22;6523;49.758;6.120;2023-02-27T04:29:25;-3.00;99.90
12911;DHT22;6523;49.758;6.120;2023-02-27T04:34:44;-3.20;99.90
12911;DHT22;6523;49.758;6.120;2023-02-27T04:37:21;-3.20;99.90
12911;DHT22;6523;49.758;6.120;2023-02-27T04:40:05;-3.00;99.90
12911;DHT22;6523;49.758;6.120;2023-02-27T04:42:36;-2.90;99.90
12911;DHT22;6523;49.758;6.120;2023-02-27T04:45:06;-3.00;99.90
12911;DHT22;6523;49.758;6.120;2023-02-27T04:47:37;-3.00;99.90
12911;DHT22;6523;49.758;6.120;2023-02-27T04:50:11;-3.10;99.90
12911;DHT22;6523;49.758;6.120;2023-02-27T04:52:42;-3.00;99.90
12911;DHT22;6523;49.758;6.120;2023-02-27T04:55:22;-3.20;99.90
12911;DHT22;6523;49.758;6.120;2023-02-27T05:00:40;-3.10;99.90
12911;DHT22;6523;49.758;6.120;2023-02-27T05:03:21;-3.20;99.90
12911;DHT22;6523;49.758;6.120;2023-02-27T05:05:49;-3.40;99.90
12911;DHT22;6523;49.758;6.120;2023-02-27T05:08:39;-3.60;99.90
12911;DHT22;6523;49.758;6.120;2023-02-27T05:11:31;-3.40;99.90
12911;DHT22;6523;49.758;6.120;2023-02-27T05:16:54;-3.30;99.90
12911;DHT22;6523;49.758;6.120;2023-02-27T05:19:22;-3.40;99.90
12911;DHT22;6523;49.758;6.120;2023-02-27T05:21:55;-3.40;99.90
12911;DHT22;6523;49.758;6.120;2023-02-27T05:24:37;-3.50;99.90
12911;DHT22;6523;49.758;6.120;2023-02-27T05:27:15;-3.30;99.90
12911;DHT22;6523;49.758;6.120;2023-02-27T05:32:44;-3.40;99.90
12911;DHT22;6523;49.758;6.120;2023-02-27T05:38:22;-3.20;99.90
12911;DHT22;6523;49.758;6.120;2023-02-27T05:40:52;-3.30;99.90
12911;DHT22;6523;49.758;6.120;2023-02-27T05:43:28;-3.40;99.90
12911;DHT22;6523;49.758;6.120;2023-02-27T05:46:02;-3.50;99.90
12911;DHT22;6523;49.758;6.120;2023-02-27T05:48:34;-3.50;99.90
12911;DHT22;6523;49.758;6.120;2023-02-27T05:51:02;-3.40;99.90
12911;DHT22;6523;49.758;6.120;2023-02-27T05:53:33;-3.40;99.90
12911;DHT22;6523;49.758;6.120;2023-02-27T05:56:01;-3.30;99.90
12911;DHT22;6523;49.758;6.120;2023-02-27T05:58:35;-3.30;99.90
12911;DHT22;6523;49.758;6.120;2023-02-27T06:01:06;-3.10;99.90
12911;DHT22;6523;49.758;6.120;2023-02-27T06:03:34;-3.10;99.90
12911;DHT22;6523;49.758;6.120;2023-02-27T06:06:02;-3.20;99.90
12911;DHT22;6523;49.758;6.120;2023-02-27T06:08:29;-3.30;99.90
12911;DHT22;6523;49.758;6.120;2023-02-27T06:10:54;-3.40;99.90
12911;DHT22;6523;49.758;6.120;2023-02-27T06:13:21;-3.50;99.90
12911;DHT22;6523;49.758;6.120;2023-02-27T06:15:47;-3.60;99.90
12911;DHT22;6523;49.758;6.120;2023-02-27T06:18:14;-3.50;99.90
12911;DHT22;6523;49.758;6.120;2023-02-27T06:20:41;-3.40;99.90
12911;DHT22;6523;49.758;6.120;2023-02-27T06:23:07;-3.30;99.90
12911;DHT22;6523;49.758;6.120;2023-02-27T06:25:33;-3.30;99.90
12911;DHT22;6523;49.758;6.120;2023-02-27T06:27:59;-3.30;99.90
12911;DHT22;6523;49.758;6.120;2023-02-27T06:30:25;-3.20;99.90
12911;DHT22;6523;49.758;6.120;2023-02-27T06:32:50;-3.30;99.90
12911;DHT22;6523;49.758;6.120;2023-02-27T06:35:16;-3.40;99.90
12911;DHT22;6523;49.758;6.120;2023-02-27T06:37:42;-3.40;99.90
12911;DHT22;6523;49.758;6.120;2023-02-27T06:40:09;-3.20;99.90
12911;DHT22;6523;49.758;6.120;2023-02-27T06:42:38;-3.10;99.90
12911;DHT22;6523;49.758;6.120;2023-02-27T06:45:05;-3.10;99.90
12911;DHT22;6523;49.758;6.120;2023-02-27T06:47:31;-3.10;99.90
12911;DHT22;6523;49.758;6.120;2023-02-27T06:49:57;-3.10;99.90
12911;DHT22;6523;49.758;6.120;2023-02-27T06:52:22;-3.20;99.90
12911;DHT22;6523;49.758;6.120;2023-02-27T06:54:48;-3.00;99.90
12911;DHT22;6523;49.758;6.120;2023-02-27T06:57:14;-2.90;99.90
12911;DHT22;6523;49.758;6.120;2023-02-27T06:59:39;-2.90;99.90
12911;DHT22;6523;49.758;6.120;2023-02-27T07:02:06;-2.80;99.90
12911;DHT22;6523;49.758;6.120;2023-02-27T07:04:31;-2.80;99.90
12911;DHT22;6523;49.758;6.120;2023-02-27T07:06:57;-2.70;99.90
12911;DHT22;6523;49.758;6.120;2023-02-27T07:09:24;-2.70;99.90
12911;DHT22;6523;49.758;6.120;2023-02-27T07:11:49;-2.80;99.90
12911;DHT22;6523;49.758;6.120;2023-02-27T07:14:15;-2.80;99.90
12911;DHT22;6523;49.758;6.120;2023-02-27T07:16:41;-2.70;99.90
12911;DHT22;6523;49.758;6.120;2023-02-27T07:19:07;-2.80;99.90
12911;DHT22;6523;49.758;6.120;2023-02-27T07:21:32;-2.80;99.90
12911;DHT22;6523;49.758;6.120;2023-02-27T07:23:58;-2.90;99.90
12911;DHT22;6523;49.758;6.120;2023-02-27T07:26:24;-2.90;99.90
12911;DHT22;6523;49.758;6.120;2023-02-27T07:28:49;-2.80;99.90
12911;DHT22;6523;49.758;6.120;2023-02-27T07:31:15;-2.70;99.90
12911;DHT22;6523;49.758;6.120;2023-02-27T07:33:40;-2.60;99.90
12911;DHT22;6523;49.758;6.120;2023-02-27T07:36:06;-2.70;99.90
12911;DHT22;6523;49.758;6.120;2023-02-27T07:38:32;-2.50;99.90
12911;DHT22;6523;49.758;6.120;2023-02-27T07:40:57;-2.30;99.90
12911;DHT22;6523;49.758;6.120;2023-02-27T07:43:24;-2.20;99.90
12911;DHT22;6523;49.758;6.120;2023-02-27T07:45:49;-2.20;99.90
12911;DHT22;6523;49.758;6.120;2023-02-27T07:48:16;-2.10;99.90
12911;DHT22;6523;49.758;6.120;2023-02-27T07:50:42;-2.20;99.90
12911;DHT22;6523;49.758;6.120;2023-02-27T07:53:08;-2.00;99.90
12911;DHT22;6523;49.758;6.120;2023-02-27T07:55:35;-1.90;99.90
12911;DHT22;6523;49.758;6.120;2023-02-27T07:58:00;-1.80;99.90
12911;DHT22;6523;49.758;6.120;2023-02-27T08:00:26;-1.60;99.90
12911;DHT22;6523;49.758;6.120;2023-02-27T08:02:51;-1.70;99.90
12911;DHT22;6523;49.758;6.120;2023-02-27T08:05:17;-1.50;99.90
12911;DHT22;6523;49.758;6.120;2023-02-27T08:07:43;-1.50;99.90
12911;DHT22;6523;49.758;6.120;2023-02-27T08:10:09;-1.40;99.90
12911;DHT22;6523;49.758;6.120;2023-02-27T08:12:34;-1.30;99.90
12911;DHT22;6523;49.758;6.120;2023-02-27T08:15:00;-1.30;99.90
12911;DHT22;6523;49.758;6.120;2023-02-27T08:17:26;-1.20;99.90
12911;DHT22;6523;49.758;6.120;2023-02-27T08:19:51;-1.10;99.90
12911;DHT22;6523;49.758;6.120;2023-02-27T08:22:17;-1.10;99.90
12911;DHT22;6523;49.758;6.120;2023-02-27T08:24:42;-1.00;99.90
12911;DHT22;6523;49.758;6.120;2023-02-27T08:27:08;-0.90;99.90
12911;DHT22;6523;49.758;6.120;2023-02-27T08:29:33;-0.90;99.90
12911;DHT22;6523;49.758;6.120;2023-02-27T08:32:00;-0.90;99.90
12911;DHT22;6523;49.758;6.120;2023-02-27T08:34:27;-0.80;99.90
12911;DHT22;6523;49.758;6.120;2023-02-27T08:36:53;-0.70;99.90
12911;DHT22;6523;49.758;6.120;2023-02-27T08:39:18;-0.70;99.40
12911;DHT22;6523;49.758;6.120;2023-02-27T08:41:44;-0.70;99.50
12911;DHT22;6523;49.758;6.120;2023-02-27T08:44:11;-0.60;99.90
12911;DHT22;6523;49.758;6.120;2023-02-27T08:46:37;-0.50;99.30
12911;DHT22;6523;49.758;6.120;2023-02-27T08:49:03;-0.50;97.30
12911;DHT22;6523;49.758;6.120;2023-02-27T08:51:28;-0.50;99.00
12911;DHT22;6523;49.758;6.120;2023-02-27T08:53:54;-0.40;97.70
12911;DHT22;6523;49.758;6.120;2023-02-27T08:56:24;-0.30;97.80
12911;DHT22;6523;49.758;6.120;2023-02-27T08:58:50;-0.30;96.40
12911;DHT22;6523;49.758;6.120;2023-02-27T09:01:15;-0.20;96.50
12911;DHT22;6523;49.758;6.120;2023-02-27T09:03:41;-0.20;94.40
12911;DHT22;6523;49.758;6.120;2023-02-27T09:06:07;-0.10;94.60
12911;DHT22;6523;49.758;6.120;2023-02-27T09:08:32;-0.10;96.70
12911;DHT22;6523;49.758;6.120;2023-02-27T09:10:58;0.10;95.10
12911;DHT22;6523;49.758;6.120;2023-02-27T09:13:24;0.20;92.80
12911;DHT22;6523;49.758;6.120;2023-02-27T09:15:51;0.30;91.80
12911;DHT22;6523;49.758;6.120;2023-02-27T09:18:17;0.50;90.00
12911;DHT22;6523;49.758;6.120;2023-02-27T09:20:43;0.70;91.30
12911;DHT22;6523;49.758;6.120;2023-02-27T09:23:09;0.80;85.50
12911;DHT22;6523;49.758;6.120;2023-02-27T09:25:35;0.80;79.90
12911;DHT22;6523;49.758;6.120;2023-02-27T09:28:00;0.90;79.40
12911;DHT22;6523;49.758;6.120;2023-02-27T09:30:26;1.10;75.40
12911;DHT22;6523;49.758;6.120;2023-02-27T09:32:52;1.20;74.90
12911;DHT22;6523;49.758;6.120;2023-02-27T09:35:18;1.40;71.90
12911;DHT22;6523;49.758;6.120;2023-02-27T09:37:46;1.70;70.60
12911;DHT22;6523;49.758;6.120;2023-02-27T09:40:27;1.80;64.50
12911;DHT22;6523;49.758;6.120;2023-02-27T09:42:59;1.80;65.60
12911;DHT22;6523;49.758;6.120;2023-02-27T09:45:28;1.90;61.40
12911;DHT22;6523;49.758;6.120;2023-02-27T09:48:41;2.10;62.40
12911;DHT22;6523;49.758;6.120;2023-02-27T09:51:10;2.50;62.00
12911;DHT22;6523;49.758;6.120;2023-02-27T09:53:40;2.50;60.50
12911;DHT22;6523;49.758;6.120;2023-02-27T09:56:22;2.60;59.00
12911;DHT22;6523;49.758;6.120;2023-02-27T10:04:33;3.20;56.50
12911;DHT22;6523;49.758;6.120;2023-02-27T10:07:13;3.20;48.90
12911;DHT22;6523;49.758;6.120;2023-02-27T10:15:34;3.60;44.30
12911;DHT22;6523;49.758;6.120;2023-02-27T10:18:07;3.80;46.20
12911;DHT22;6523;49.758;6.120;2023-02-27T10:20:39;4.10;48.60
12911;DHT22;6523;49.758;6.120;2023-02-27T10:23:13;4.20;43.00
12911;DHT22;6523;49.758;6.120;2023-02-27T10:25:44;4.40;43.90
12911;DHT22;6523;49.758;6.120;2023-02-27T10:28:17;4.50;43.30
12911;DHT22;6523;49.758;6.120;2023-02-27T10:30:51;4.80;46.40
12911;DHT22;6523;49.758;6.120;2023-02-27T10:35:54;4.70;36.50
12911;DHT22;6523;49.758;6.120;2023-02-27T10:41:08;5.00;19.60
12911;DHT22;6523;49.758;6.120;2023-02-27T10:43:34;4.70;17.40
12911;DHT22;6523;49.758;6.120;2023-02-27T10:46:12;4.60;19.50
12911;DHT22;6523;49.758;6.120;2023-02-27T10:48:38;5.00;28.60
12911;DHT22;6523;49.758;6.120;2023-02-27T10:51:34;5.30;24.90
12911;DHT22;6523;49.758;6.120;2023-02-27T10:54:21;5.20;18.90
12911;DHT22;6523;49.758;6.120;2023-02-27T10:56:56;5.70;27.90
12911;DHT22;6523;49.758;6.120;2023-02-27T10:59:32;5.80;22.60
12911;DHT22;6523;49.758;6.120;2023-02-27T11:02:00;6.10;21.30
12911;DHT22;6523;49.758;6.120;2023-02-27T11:04:33;5.70;15.20
12911;DHT22;6523;49.758;6.120;2023-02-27T11:07:04;5.60;14.60
12911;DHT22;6523;49.758;6.120;2023-02-27T11:09:32;6.10;21.30
12911;DHT22;6523;49.758;6.120;2023-02-27T11:14:53;6.30;10.70
12911;DHT22;6523;49.758;6.120;2023-02-27T11:17:31;6.30;10.50
12911;DHT22;6523;49.758;6.120;2023-02-27T11:20:00;6.00;4.60
12911;DHT22;6523;49.758;6.120;2023-02-27T11:22:28;5.90;2.90
12911;DHT22;6523;49.758;6.120;2023-02-27T11:27:41;6.10;2.70
12911;DHT22;6523;49.758;6.120;2023-02-27T11:30:27;6.60;6.30
12911;DHT22;6523;49.758;6.120;2023-02-27T11:32:58;6.40;1.00
12911;DHT22;6523;49.758;6.120;2023-02-27T11:35:28;6.50;1.00
12911;DHT22;6523;49.758;6.120;2023-02-27T11:37:57;6.20;1.00
12911;DHT22;6523;49.758;6.120;2023-02-27T11:40:35;6.00;1.00
12911;DHT22;6523;49.758;6.120;2023-02-27T11:43:36;6.20;1.00
12911;DHT22;6523;49.758;6.120;2023-02-27T11:46:06;6.00;1.00
12911;DHT22;6523;49.758;6.120;2023-02-27T11:48:56;6.00;1.00
12911;DHT22;6523;49.758;6.120;2023-02-27T11:56:57;6.90;8.80
12911;DHT22;6523;49.758;6.120;2023-02-27T12:04:46;7.20;14.40
12911;DHT22;6523;49.758;6.120;2023-02-27T12:07:34;7.30;9.30
12911;DHT22;6523;49.758;6.120;2023-02-27T12:15:26;7.40;13.10
12911;DHT22;6523;49.758;6.120;2023-02-27T12:20:56;6.80;6.60
12911;DHT22;6523;49.758;6.120;2023-02-27T12:26:26;7.50;11.30
12911;DHT22;6523;49.758;6.120;2023-02-27T12:31:37;7.60;8.20
12911;DHT22;6523;49.758;6.120;2023-02-27T12:36:52;8.60;16.40
12911;DHT22;6523;49.758;6.120;2023-02-27T12:39:22;8.30;6.50
12911;DHT22;6523;49.758;6.120;2023-02-27T12:44:38;8.10;2.40
12911;DHT22;6523;49.758;6.120;2023-02-27T12:49:41;8.20;6.50
12911;DHT22;6523;49.758;6.120;2023-02-27T12:54:58;8.10;7.00
12911;DHT22;6523;49.758;6.120;2023-02-27T12:57:48;8.00;6.10
12911;DHT22;6523;49.758;6.120;2023-02-27T13:00:21;8.20;4.60
12911;DHT22;6523;49.758;6.120;2023-02-27T13:05:29;8.80;3.50
12911;DHT22;6523;49.758;6.120;2023-02-27T13:13:30;7.90;1.00
12911;DHT22;6523;49.758;6.120;2023-02-27T13:16:18;8.30;1.00
12911;DHT22;6523;49.758;6.120;2023-02-27T13:18:53;8.10;1.00
12911;DHT22;6523;49.758;6.120;2023-02-27T13:21:45;8.10;1.00
12911;DHT22;6523;49.758;6.120;2023-02-27T13:29:42;8.30;2.10
12911;DHT22;6523;49.758;6.120;2023-02-27T13:32:29;8.20;1.00
12911;DHT22;6523;49.758;6.120;2023-02-27T13:38:00;8.60;1.00
12911;DHT22;6523;49.758;6.120;2023-02-27T13:40:38;8.90;1.00
12911;DHT22;6523;49.758;6.120;2023-02-27T13:43:39;8.20;1.00
12911;DHT22;6523;49.758;6.120;2023-02-27T13:46:24;8.00;1.00
12911;DHT22;6523;49.758;6.120;2023-02-27T13:48:51;8.20;1.00
12911;DHT22;6523;49.758;6.120;2023-02-27T13:59:32;8.40;1.00
12911;DHT22;6523;49.758;6.120;2023-02-27T14:04:51;8.00;1.00
12911;DHT22;6523;49.758;6.120;2023-02-27T14:07:23;8.20;1.00
12911;DHT22;6523;49.758;6.120;2023-02-27T14:10:01;8.50;1.00
12911;DHT22;6523;49.758;6.120;2023-02-27T14:12:38;8.90;1.00
12911;DHT22;6523;49.758;6.120;2023-02-27T14:15:46;8.70;1.00
12911;DHT22;6523;49.758;6.120;2023-02-27T14:17:59;8.10;1.00
12911;DHT22;6523;49.758;6.120;2023-02-27T14:25:56;7.50;1.00
12911;DHT22;6523;49.758;6.120;2023-02-27T14:28:45;7.90;1.00
12911;DHT22;6523;49.758;6.120;2023-02-27T14:31:30;7.60;1.00
12911;DHT22;6523;49.758;6.120;2023-02-27T14:33:57;7.70;1.00
12911;DHT22;6523;49.758;6.120;2023-02-27T14:36:32;7.80;1.00
12911;DHT22;6523;49.758;6.120;2023-02-27T14:39:00;7.60;1.00
12911;DHT22;6523;49.758;6.120;2023-02-27T14:44:21;8.00;1.00
12911;DHT22;6523;49.758;6.120;2023-02-27T14:46:48;8.40;1.00
12911;DHT22;6523;49.758;6.120;2023-02-27T14:49:24;7.90;1.00
12911;DHT22;6523;49.758;6.120;2023-02-27T14:51:50;7.60;1.00
12911;DHT22;6523;49.758;6.120;2023-02-27T14:54:21;7.70;1.00
12911;DHT22;6523;49.758;6.120;2023-02-27T14:56:58;7.10;1.00
12911;DHT22;6523;49.758;6.120;2023-02-27T14:59:42;7.40;1.00
12911;DHT22;6523;49.758;6.120;2023-02-27T15:02:33;7.20;1.00
12911;DHT22;6523;49.758;6.120;2023-02-27T15:10:04;7.10;1.00
12911;DHT22;6523;49.758;6.120;2023-02-27T15:12:30;6.90;1.00
12911;DHT22;6523;49.758;6.120;2023-02-27T15:15:01;6.90;1.00
12911;DHT22;6523;49.758;6.120;2023-02-27T15:17:39;6.70;1.00
12911;DHT22;6523;49.758;6.120;2023-02-27T15:20:30;6.90;1.00
12911;DHT22;6523;49.758;6.120;2023-02-27T15:23:00;7.30;1.00
12911;DHT22;6523;49.758;6.120;2023-02-27T15:25:37;7.50;1.00
12911;DHT22;6523;49.758;6.120;2023-02-27T15:28:06;8.20;1.00
12911;DHT22;6523;49.758;6.120;2023-02-27T15:30:33;7.90;1.00
12911;DHT22;6523;49.758;6.120;2023-02-27T15:32:59;6.90;1.00
12911;DHT22;6523;49.758;6.120;2023-02-27T15:35:37;6.70;1.00
12911;DHT22;6523;49.758;6.120;2023-02-27T15:38:20;6.90;1.00
12911;DHT22;6523;49.758;6.120;2023-02-27T15:40:47;6.90;1.00
12911;DHT22;6523;49.758;6.120;2023-02-27T15:43:12;7.20;1.00
12911;DHT22;6523;49.758;6.120;2023-02-27T15:45:38;7.50;1.00
12911;DHT22;6523;49.758;6.120;2023-02-27T15:48:06;6.60;1.00
12911;DHT22;6523;49.758;6.120;2023-02-27T15:50:37;5.60;1.00
12911;DHT22;6523;49.758;6.120;2023-02-27T15:53:12;5.20;1.00
12911;DHT22;6523;49.758;6.120;2023-02-27T15:55:40;4.70;1.00
12911;DHT22;6523;49.758;6.120;2023-02-27T16:00:43;4.80;1.00
12911;DHT22;6523;49.758;6.120;2023-02-27T16:03:14;5.30;1.00
12911;DHT22;6523;49.758;6.120;2023-02-27T16:05:41;5.60;1.00
12911;DHT22;6523;49.758;6.120;2023-02-27T16:08:15;5.50;1.00
12911;DHT22;6523;49.758;6.120;2023-02-27T16:10:43;5.60;1.00
12911;DHT22;6523;49.758;6.120;2023-02-27T16:13:31;5.50;1.00
12911;DHT22;6523;49.758;6.120;2023-02-27T16:18:48;4.70;1.00
12911;DHT22;6523;49.758;6.120;2023-02-27T16:21:22;4.50;1.00
12911;DHT22;6523;49.758;6.120;2023-02-27T16:23:48;4.20;1.00
12911;DHT22;6523;49.758;6.120;2023-02-27T16:26:27;4.50;1.00
12911;DHT22;6523;49.758;6.120;2023-02-27T16:29:00;4.70;1.00
12911;DHT22;6523;49.758;6.120;2023-02-27T16:31:34;4.60;1.00
12911;DHT22;6523;49.758;6.120;2023-02-27T16:36:39;4.50;1.00
12911;DHT22;6523;49.758;6.120;2023-02-27T16:39:15;4.40;1.00
12911;DHT22;6523;49.758;6.120;2023-02-27T16:41:40;4.30;1.00
12911;DHT22;6523;49.758;6.120;2023-02-27T16:44:06;4.30;1.00
12911;DHT22;6523;49.758;6.120;2023-02-27T16:46:31;4.30;1.00
12911;DHT22;6523;49.758;6.120;2023-02-27T16:48:57;4.00;1.00
12911;DHT22;6523;49.758;6.120;2023-02-27T16:51:29;4.00;1.00
12911;DHT22;6523;49.758;6.120;2023-02-27T16:53:55;3.90;3.50
12911;DHT22;6523;49.758;6.120;2023-02-27T16:56:23;3.90;6.00
12911;DHT22;6523;49.758;6.120;2023-02-27T16:58:49;3.70;9.10
12911;DHT22;6523;49.758;6.120;2023-02-27T17:01:15;3.60;7.00
12911;DHT22;6523;49.758;6.120;2023-02-27T17:03:42;3.50;6.30
12911;DHT22;6523;49.758;6.120;2023-02-27T17:06:09;3.30;4.40
12911;DHT22;6523;49.758;6.120;2023-02-27T17:08:40;3.20;9.50
12911;DHT22;6523;49.758;6.120;2023-02-27T17:11:06;3.10;6.30
12911;DHT22;6523;49.758;6.120;2023-02-27T17:13:33;3.00;10.30
12911;DHT22;6523;49.758;6.120;2023-02-27T17:16:01;3.00;9.40
12911;DHT22;6523;49.758;6.120;2023-02-27T17:18:27;3.00;9.30
12911;DHT22;6523;49.758;6.120;2023-02-27T17:20:53;3.10;9.10
12911;DHT22;6523;49.758;6.120;2023-02-27T17:23:21;2.90;8.80
12911;DHT22;6523;49.758;6.120;2023-02-27T17:25:47;2.80;11.30
12911;DHT22;6523;49.758;6.120;2023-02-27T17:28:13;2.60;16.50
12911;DHT22;6523;49.758;6.120;2023-02-27T17:30:39;2.60;14.80
12911;DHT22;6523;49.758;6.120;2023-02-27T17:33:05;2.40;22.80
12911;DHT22;6523;49.758;6.120;2023-02-27T17:35:30;2.40;20.30
12911;DHT22;6523;49.758;6.120;2023-02-27T17:37:57;2.40;20.20
12911;DHT22;6523;49.758;6.120;2023-02-27T17:40:24;2.40;20.30
12911;DHT22;6523;49.758;6.120;2023-02-27T17:42:50;2.40;20.70
12911;DHT22;6523;49.758;6.120;2023-02-27T17:45:15;2.30;21.60
12911;DHT22;6523;49.758;6.120;2023-02-27T17:47:41;2.40;19.00
12911;DHT22;6523;49.758;6.120;2023-02-27T17:50:08;2.50;20.40
12911;DHT22;6523;49.758;6.120;2023-02-27T17:52:36;2.40;18.90
12911;DHT22;6523;49.758;6.120;2023-02-27T17:55:02;2.30;20.20
12911;DHT22;6523;49.758;6.120;2023-02-27T17:57:28;2.00;23.80
12911;DHT22;6523;49.758;6.120;2023-02-27T17:59:54;1.90;24.30
12911;DHT22;6523;49.758;6.120;2023-02-27T18:02:19;2.00;22.00
12911;DHT22;6523;49.758;6.120;2023-02-27T18:04:45;2.00;21.80
12911;DHT22;6523;49.758;6.120;2023-02-27T18:07:12;2.00;20.20
12911;DHT22;6523;49.758;6.120;2023-02-27T18:09:37;1.90;20.90
12911;DHT22;6523;49.758;6.120;2023-02-27T18:12:03;1.80;22.20
12911;DHT22;6523;49.758;6.120;2023-02-27T18:14:29;1.70;23.50
12911;DHT22;6523;49.758;6.120;2023-02-27T18:16:54;1.60;23.40
12911;DHT22;6523;49.758;6.120;2023-02-27T18:19:20;1.60;23.80
12911;DHT22;6523;49.758;6.120;2023-02-27T18:21:47;1.60;23.90
12911;DHT22;6523;49.758;6.120;2023-02-27T18:24:16;1.50;24.70
12911;DHT22;6523;49.758;6.120;2023-02-27T18:26:41;1.40;26.30
12911;DHT22;6523;49.758;6.120;2023-02-27T18:29:09;1.50;25.80
12911;DHT22;6523;49.758;6.120;2023-02-27T18:31:41;1.30;27.80
12911;DHT22;6523;49.758;6.120;2023-02-27T18:34:08;1.20;30.40
12911;DHT22;6523;49.758;6.120;2023-02-27T18:36:34;0.90;32.60
12911;DHT22;6523;49.758;6.120;2023-02-27T18:39:00;1.00;37.60
12911;DHT22;6523;49.758;6.120;2023-02-27T18:41:26;1.10;34.00
12911;DHT22;6523;49.758;6.120;2023-02-27T18:43:53;0.90;36.10
12911;DHT22;6523;49.758;6.120;2023-02-27T18:46:18;1.00;37.40
12911;DHT22;6523;49.758;6.120;2023-02-27T18:48:44;1.10;34.60
12911;DHT22;6523;49.758;6.120;2023-02-27T18:51:12;1.00;36.10
12911;DHT22;6523;49.758;6.120;2023-02-27T18:53:40;0.80;40.20
12911;DHT22;6523;49.758;6.120;2023-02-27T18:56:08;0.70;42.50
12911;DHT22;6523;49.758;6.120;2023-02-27T18:58:35;0.70;40.80
12911;DHT22;6523;49.758;6.120;2023-02-27T19:01:01;0.60;42.60
12911;DHT22;6523;49.758;6.120;2023-02-27T19:03:28;0.60;45.40
12911;DHT22;6523;49.758;6.120;2023-02-27T19:05:54;0.60;42.10
12911;DHT22;6523;49.758;6.120;2023-02-27T19:08:19;0.70;42.50